createdAt,value
2019-02-20T00:02:07.994Z,11.07
2019-02-20T00:04:37.308Z,9.67
2019-02-20T00:07:06.512Z,10.43
2019-02-20T00:09:35.752Z,10.47
2019-02-20T00:12:05.128Z,10.03
2019-02-20T00:14:34.289Z,11.10
2019-02-20T00:17:03.584Z,10.13
2019-02-20T00:19:32.800Z,10.23
2019-02-20T00:22:01.965Z,9.53
2019-02-20T00:24:31.155Z,9.57
2019-02-20T00:27:00.395Z,10.07
2019-02-20T00:29:29.696Z,11.37
2019-02-20T00:31:59.070Z,9.07
2019-02-20T00:34:28.248Z,9.43
2019-02-20T00:36:57.456Z,9.70
2019-02-20T00:39:26.659Z,9.63
2019-02-20T00:41:55.871Z,9.57
2019-02-20T00:44:33.955Z,8.70
2019-02-20T00:47:22.216Z,8.33
2019-02-20T00:49:52.044Z,8.40
2019-02-20T00:52:30.601Z,9.00
2019-02-20T00:54:59.934Z,8.80
2019-02-20T00:57:29.161Z,7.90
2019-02-20T00:59:58.340Z,8.00
2019-02-20T01:02:27.669Z,7.43
2019-02-20T01:04:56.899Z,7.90
2019-02-20T01:07:26.132Z,8.47
2019-02-20T01:09:55.361Z,8.97
2019-02-20T01:12:24.601Z,8.67
2019-02-20T01:14:53.797Z,7.97
2019-02-20T01:17:23.012Z,8.27
2019-02-20T01:19:52.288Z,8.00
2019-02-20T01:22:21.484Z,6.93
2019-02-20T01:24:50.719Z,8.90
2019-02-20T01:27:19.934Z,7.63
2019-02-20T01:29:49.151Z,7.93
2019-02-20T01:32:18.366Z,7.90
2019-02-20T01:34:47.585Z,8.00
2019-02-20T01:37:16.859Z,8.20
2019-02-20T01:39:46.156Z,8.17
2019-02-20T01:42:15.369Z,7.50
2019-02-20T01:44:44.557Z,8.03
2019-02-20T01:47:13.768Z,7.23
2019-02-20T01:49:42.973Z,8.20
2019-02-20T01:52:12.196Z,7.17
2019-02-20T01:54:41.400Z,8.00
2019-02-20T01:57:10.602Z,8.63
2019-02-20T01:59:39.833Z,7.17
2019-02-20T02:02:09.101Z,8.83
2019-02-20T02:04:38.340Z,8.40
2019-02-20T02:07:07.622Z,9.60
2019-02-20T02:09:36.808Z,9.13
2019-02-20T02:12:06.019Z,9.47
2019-02-20T02:14:35.246Z,10.33
2019-02-20T02:17:04.772Z,9.70
2019-02-20T02:19:33.968Z,9.07
2019-02-20T02:22:03.170Z,9.93
2019-02-20T02:24:32.496Z,10.03
2019-02-20T02:27:01.691Z,11.10
2019-02-20T02:29:30.897Z,10.80
2019-02-20T02:32:00.121Z,11.37
2019-02-20T02:34:29.335Z,11.97
2019-02-20T02:36:58.617Z,12.10
2019-02-20T02:39:27.759Z,11.27
2019-02-20T02:41:57.005Z,11.77
2019-02-20T02:44:26.226Z,11.13
2019-02-20T02:46:55.429Z,11.80
2019-02-20T02:49:24.668Z,12.90
2019-02-20T02:51:53.865Z,11.83
2019-02-20T02:54:23.120Z,14.13
2019-02-20T02:56:52.391Z,13.87
2019-02-20T02:59:21.637Z,14.20
2019-02-20T03:01:50.905Z,14.20
2019-02-20T03:04:20.136Z,16.03
2019-02-20T03:06:49.348Z,15.07
2019-02-20T03:09:18.546Z,17.23
2019-02-20T03:11:47.761Z,14.20
2019-02-20T03:14:16.959Z,15.67
2019-02-20T03:16:46.195Z,15.80
2019-02-20T03:19:15.509Z,16.00
2019-02-20T03:21:44.745Z,16.37
2019-02-20T03:24:14.037Z,16.00
2019-02-20T03:26:43.236Z,15.30
2019-02-20T03:29:12.444Z,16.67
2019-02-20T03:31:41.645Z,15.70
2019-02-20T03:34:11.087Z,16.07
2019-02-20T03:36:40.280Z,15.57
2019-02-20T03:39:09.512Z,15.10
2019-02-20T03:41:38.777Z,15.53
2019-02-20T03:44:07.985Z,15.77
2019-02-20T03:46:37.181Z,15.43
2019-02-20T03:49:06.479Z,15.33
2019-02-20T03:51:35.726Z,14.87
2019-02-20T03:54:05.010Z,15.40
2019-02-20T03:56:34.308Z,14.07
2019-02-20T03:59:03.521Z,14.77
2019-02-20T04:01:32.743Z,15.50
2019-02-20T04:04:02.041Z,14.63
2019-02-20T04:06:31.247Z,15.13
2019-02-20T04:09:00.445Z,14.37
2019-02-20T04:11:29.655Z,14.17
2019-02-20T04:13:58.903Z,13.77
2019-02-20T04:16:28.166Z,14.87
2019-02-20T04:18:57.402Z,14.60
2019-02-20T04:21:26.621Z,14.40
2019-02-20T04:24:02.590Z,14.57
2019-02-20T04:26:26.711Z,14.50
2019-02-20T04:28:55.927Z,14.13
2019-02-20T04:31:25.332Z,12.87
2019-02-20T04:33:54.525Z,14.27
2019-02-20T04:36:23.740Z,13.50
2019-02-20T04:38:53.099Z,13.77
2019-02-20T04:41:22.283Z,14.50
2019-02-20T04:43:51.615Z,14.50
2019-02-20T04:46:20.805Z,14.50
2019-02-20T04:48:50.020Z,14.13
2019-02-20T04:51:19.271Z,13.20
2019-02-20T04:53:48.515Z,13.93
2019-02-20T04:56:17.741Z,14.20
2019-02-20T04:58:48.925Z,14.40
2019-02-20T05:01:18.180Z,15.47
2019-02-20T05:03:47.374Z,14.90
2019-02-20T05:06:16.598Z,14.67
2019-02-20T05:08:45.824Z,13.77
2019-02-20T05:11:15.189Z,13.93
2019-02-20T05:13:44.510Z,16.27
2019-02-20T05:16:13.715Z,14.03
2019-02-20T05:18:43.044Z,16.50
2019-02-20T05:21:12.365Z,14.77
2019-02-20T05:23:42.852Z,14.57
2019-02-20T05:26:12.313Z,16.33
2019-02-20T05:28:41.531Z,13.77
2019-02-20T05:31:10.760Z,16.10
2019-02-20T05:33:39.959Z,16.50
2019-02-20T05:36:09.184Z,15.50
2019-02-20T05:38:38.380Z,16.03
2019-02-20T05:41:07.608Z,16.70
2019-02-20T05:43:36.817Z,17.33
2019-02-20T05:46:06.071Z,16.40
2019-02-20T05:48:35.262Z,17.70
2019-02-20T05:51:04.462Z,17.20
2019-02-20T05:53:33.716Z,17.03
2019-02-20T05:56:02.978Z,17.70
2019-02-20T05:58:32.464Z,19.23
2019-02-20T06:01:01.768Z,17.77
2019-02-20T06:03:30.980Z,16.87
2019-02-20T06:06:00.257Z,19.33
2019-02-20T06:08:29.452Z,18.20
2019-02-20T06:10:58.661Z,19.80
2019-02-20T06:13:27.944Z,18.73
2019-02-20T06:15:57.246Z,18.07
2019-02-20T06:18:26.585Z,20.37
2019-02-20T06:20:55.884Z,18.70
2019-02-20T06:23:26.125Z,19.67
2019-02-20T06:25:55.396Z,20.97
2019-02-20T06:28:24.805Z,20.80
2019-02-20T06:30:54.011Z,21.67
2019-02-20T06:33:24.685Z,21.80
2019-02-20T06:35:53.860Z,21.20
2019-02-20T06:38:23.136Z,19.17
2019-02-20T06:40:52.350Z,20.17
2019-02-20T06:43:21.574Z,21.07
2019-02-20T06:45:50.785Z,20.47
2019-02-20T06:48:20.009Z,20.57
2019-02-20T06:50:49.215Z,19.67
2019-02-20T06:53:18.445Z,20.30
2019-02-20T06:55:47.645Z,20.93
2019-02-20T06:58:16.960Z,21.10
2019-02-20T07:00:46.158Z,19.70
2019-02-20T07:03:15.628Z,20.67
2019-02-20T07:05:53.508Z,21.43
2019-02-20T07:09:15.225Z,20.20
2019-02-20T07:12:29.491Z,22.23
2019-02-20T07:15:49.064Z,21.83
2019-02-20T07:18:47.125Z,21.70
2019-02-20T07:21:58.411Z,20.03
2019-02-20T07:25:13.215Z,20.00
2019-02-20T07:28:21.715Z,20.47
2019-02-20T07:30:52.343Z,20.27
2019-02-20T07:33:21.512Z,21.07
2019-02-20T07:35:51.735Z,20.63
2019-02-20T07:38:20.994Z,18.37
2019-02-20T07:40:50.197Z,18.73
2019-02-20T07:43:19.462Z,20.00
2019-02-20T07:45:49.277Z,20.07
2019-02-20T07:48:18.756Z,19.33
2019-02-20T07:50:48.076Z,19.07
2019-02-20T07:53:17.300Z,19.70
2019-02-20T07:55:46.548Z,18.90
2019-02-20T07:58:15.737Z,18.17
2019-02-20T08:00:46.874Z,19.03
2019-02-20T08:03:16.221Z,18.57
2019-02-20T08:05:45.408Z,20.00
2019-02-20T08:08:14.753Z,20.10
2019-02-20T08:10:43.932Z,17.37
2019-02-20T08:13:13.162Z,18.67
2019-02-20T08:15:42.440Z,19.13
2019-02-20T08:18:11.680Z,19.00
2019-02-20T08:20:40.894Z,19.23
2019-02-20T08:23:10.161Z,20.53
2019-02-20T08:25:39.412Z,18.97
2019-02-20T08:28:08.721Z,20.90
2019-02-20T08:30:38.048Z,19.93
2019-02-20T08:33:07.241Z,20.77
2019-02-20T08:35:36.607Z,19.50
2019-02-20T08:38:05.857Z,19.33
2019-02-20T08:40:35.251Z,20.83
2019-02-20T08:43:04.492Z,19.83
2019-02-20T08:45:33.832Z,21.53
2019-02-20T08:48:03.027Z,21.07
2019-02-20T08:50:32.361Z,20.80
2019-02-20T08:53:01.537Z,20.33
2019-02-20T08:55:32.387Z,20.17
2019-02-20T08:58:02.009Z,21.07
2019-02-20T09:00:32.301Z,20.60
2019-02-20T09:03:01.679Z,20.93
2019-02-20T09:05:30.909Z,19.43
2019-02-20T09:08:00.235Z,20.93
2019-02-20T09:10:29.534Z,19.93
2019-02-20T09:12:58.848Z,22.30
2019-02-20T09:15:28.213Z,22.27
2019-02-20T09:17:57.532Z,22.00
2019-02-20T09:20:26.896Z,22.73
2019-02-20T09:22:56.127Z,22.57
2019-02-20T09:25:25.322Z,22.87
2019-02-20T09:27:54.525Z,22.87
2019-02-20T09:30:28.519Z,23.73
2019-02-20T09:32:54.580Z,22.33
2019-02-20T09:35:23.812Z,24.17
2019-02-20T09:37:53.025Z,23.27
2019-02-20T09:40:22.213Z,21.87
2019-02-20T09:42:51.467Z,22.70
2019-02-20T09:45:20.679Z,22.90
2019-02-20T09:47:49.976Z,22.50
2019-02-20T09:50:19.176Z,23.03
2019-02-20T09:52:52.288Z,24.30
2019-02-20T09:55:19.311Z,25.07
2019-02-20T09:57:48.495Z,24.10
2019-02-20T10:00:17.826Z,23.37
2019-02-20T10:02:47.457Z,22.77
2019-02-20T10:05:16.748Z,21.20
2019-02-20T10:07:45.948Z,21.83
2019-02-20T10:10:15.172Z,21.80
2019-02-20T10:12:44.393Z,21.93
2019-02-20T10:15:14.090Z,20.90
2019-02-20T10:17:43.302Z,22.50
2019-02-20T10:20:12.533Z,20.97
2019-02-20T10:22:41.750Z,20.77
2019-02-20T10:25:11.023Z,20.97
2019-02-20T10:27:40.226Z,20.03
2019-02-20T10:30:12.704Z,21.60
2019-02-20T10:32:41.932Z,22.20
2019-02-20T10:35:11.772Z,21.70
2019-02-20T10:37:40.980Z,21.83
2019-02-20T10:40:10.260Z,22.70
2019-02-20T10:42:39.636Z,21.80
2019-02-20T10:45:09.203Z,24.37
2019-02-20T10:47:38.523Z,23.37
2019-02-20T10:50:07.943Z,22.30
2019-02-20T10:52:37.273Z,22.23
2019-02-20T10:55:07.088Z,25.00
2019-02-20T10:57:36.433Z,23.83
2019-02-20T11:00:08.652Z,25.33
2019-02-20T11:02:37.856Z,26.93
2019-02-20T11:05:07.103Z,24.97
2019-02-20T11:07:36.320Z,26.70
2019-02-20T11:10:05.964Z,27.03
2019-02-20T11:12:35.382Z,28.63
2019-02-20T11:15:04.993Z,27.90
2019-02-20T11:17:34.317Z,26.77
2019-02-20T11:20:03.576Z,28.33
2019-02-20T11:22:32.816Z,29.63
2019-02-20T11:25:02.029Z,28.33
2019-02-20T11:27:31.313Z,30.03
2019-02-20T11:30:00.628Z,28.13
2019-02-20T11:32:29.864Z,29.20
2019-02-20T11:34:59.060Z,29.87
2019-02-20T11:37:28.383Z,31.63
2019-02-20T11:39:57.677Z,32.27
2019-02-20T11:42:26.904Z,31.70
2019-02-20T11:44:56.113Z,32.97
2019-02-20T11:47:25.428Z,33.07
2019-02-20T11:49:54.661Z,32.50
2019-02-20T11:52:23.992Z,32.57
2019-02-20T11:54:53.304Z,33.73
2019-02-20T11:57:22.586Z,34.13
2019-02-20T11:59:51.884Z,34.83
2019-02-20T12:02:21.106Z,34.10
2019-02-20T12:04:50.432Z,35.13
2019-02-20T12:07:19.715Z,37.83
2019-02-20T12:09:48.965Z,38.30
2019-02-20T12:12:18.158Z,38.20
2019-02-20T12:14:47.493Z,36.20
2019-02-20T12:17:16.780Z,37.53
2019-02-20T12:19:46.124Z,36.33
2019-02-20T12:22:15.345Z,35.50
2019-02-20T12:24:44.732Z,36.03
2019-02-20T12:27:14.077Z,35.97
2019-02-20T12:29:43.297Z,35.43
2019-02-20T12:32:12.599Z,36.40
2019-02-20T12:34:41.816Z,34.43
2019-02-20T12:37:11.101Z,35.20
2019-02-20T12:39:40.416Z,33.33
2019-02-20T12:42:09.680Z,30.87
2019-02-20T12:44:38.908Z,30.57
2019-02-20T12:47:08.167Z,28.87
2019-02-20T12:49:37.425Z,28.50
2019-02-20T12:52:06.659Z,29.07
2019-02-20T12:54:35.896Z,26.40
2019-02-20T12:57:05.140Z,27.23
2019-02-20T12:59:34.332Z,28.47
2019-02-20T13:02:03.653Z,27.97
2019-02-20T13:04:32.985Z,25.07
2019-02-20T13:07:02.301Z,27.37
2019-02-20T13:09:31.656Z,29.00
2019-02-20T13:12:00.913Z,30.43
2019-02-20T13:14:30.213Z,27.63
2019-02-20T13:16:59.786Z,29.13
2019-02-20T13:19:29.276Z,29.77
2019-02-20T13:21:58.864Z,26.37
2019-02-20T13:24:28.396Z,25.87
2019-02-20T13:26:57.920Z,25.53
2019-02-20T13:29:27.365Z,26.10
2019-02-20T13:31:56.889Z,25.30
2019-02-20T13:34:26.507Z,26.53
2019-02-20T13:36:56.062Z,24.37
2019-02-20T13:39:25.625Z,25.27
2019-02-20T13:41:55.568Z,25.60
2019-02-20T13:44:25.088Z,25.90
2019-02-20T13:46:55.325Z,25.53
2019-02-20T13:49:25.034Z,23.93
2019-02-20T13:51:54.775Z,25.67
2019-02-20T13:54:24.534Z,27.70
2019-02-20T13:57:01.644Z,29.03
2019-02-20T13:59:25.338Z,29.23
2019-02-20T14:01:54.949Z,29.20
2019-02-20T14:04:24.185Z,26.27
2019-02-20T14:06:53.386Z,26.77
2019-02-20T14:09:22.596Z,28.53
2019-02-20T14:11:51.837Z,27.03
2019-02-20T14:14:21.054Z,25.67
2019-02-20T14:16:50.281Z,25.00
2019-02-20T14:19:19.583Z,23.47
2019-02-20T14:21:51.649Z,25.80
2019-02-20T14:24:20.874Z,25.83
2019-02-20T14:26:50.103Z,24.60
2019-02-20T14:29:19.323Z,21.20
2019-02-20T14:31:49.629Z,24.30
2019-02-20T14:34:18.936Z,21.87
2019-02-20T14:36:48.188Z,21.23
2019-02-20T14:39:17.401Z,21.70
2019-02-20T14:41:46.632Z,20.10
2019-02-20T14:44:15.858Z,21.10
2019-02-20T14:46:45.084Z,20.67
2019-02-20T14:49:14.615Z,21.03
2019-02-20T14:51:43.832Z,18.07
2019-02-20T14:54:13.070Z,17.60
2019-02-20T14:56:42.460Z,18.67
2019-02-20T14:59:11.677Z,17.87
2019-02-20T15:01:40.980Z,17.57
2019-02-20T15:04:10.499Z,18.50
2019-02-20T15:06:39.788Z,18.23
2019-02-20T15:09:09.029Z,17.60
2019-02-20T15:11:38.219Z,16.90
2019-02-20T15:14:07.560Z,18.43
2019-02-20T15:16:36.767Z,17.27
2019-02-20T15:19:06.388Z,17.07
2019-02-20T15:21:35.624Z,17.43
2019-02-20T15:24:04.845Z,17.23
2019-02-20T15:26:34.073Z,16.90
2019-02-20T15:29:03.285Z,17.43
2019-02-20T15:31:33.941Z,17.60
2019-02-20T15:34:04.903Z,16.30
2019-02-20T15:36:34.284Z,14.17
2019-02-20T15:39:04.672Z,15.03
2019-02-20T15:41:33.906Z,14.40
2019-02-20T15:44:03.120Z,12.60
2019-02-20T15:46:32.364Z,11.70
2019-02-20T15:49:01.570Z,11.97
2019-02-20T15:51:30.783Z,10.93
2019-02-20T15:53:59.989Z,9.50
2019-02-20T15:56:29.236Z,10.10
2019-02-20T15:58:58.505Z,9.90
2019-02-20T16:01:27.704Z,8.77
2019-02-20T16:03:56.919Z,8.43
2019-02-20T16:06:27.028Z,8.77
2019-02-20T16:08:56.967Z,8.07
2019-02-20T16:11:26.233Z,9.13
2019-02-20T16:13:55.677Z,7.07
2019-02-20T16:16:25.186Z,7.27
2019-02-20T16:18:55.640Z,7.30
2019-02-20T16:21:25.549Z,7.10
2019-02-20T16:23:55.117Z,7.63
2019-02-20T16:26:25.040Z,6.63
2019-02-20T16:28:55.002Z,6.60
2019-02-20T16:31:24.761Z,7.80
2019-02-20T16:33:54.744Z,6.37
2019-02-20T16:36:24.780Z,6.80
2019-02-20T16:38:54.762Z,6.60
2019-02-20T16:41:24.466Z,6.03
2019-02-20T16:43:54.444Z,6.63
2019-02-20T16:46:24.849Z,6.63
2019-02-20T16:48:54.694Z,6.40
2019-02-20T16:51:24.284Z,6.00
2019-02-20T16:53:54.213Z,6.33
2019-02-20T16:56:24.212Z,6.47
2019-02-20T16:58:53.664Z,6.17
2019-02-20T17:01:23.486Z,6.40
2019-02-20T17:03:53.154Z,6.83
2019-02-20T17:06:22.660Z,6.63
2019-02-20T17:08:52.368Z,6.40
2019-02-20T17:11:23.886Z,6.57
2019-02-20T17:13:53.820Z,7.30
2019-02-20T17:16:23.609Z,7.13
2019-02-20T17:18:53.619Z,7.07
2019-02-20T17:21:23.416Z,6.87
2019-02-20T17:23:53.507Z,7.57
2019-02-20T17:26:23.061Z,7.47
2019-02-20T17:28:52.852Z,7.30
2019-02-20T17:31:22.606Z,6.83
2019-02-20T17:33:52.443Z,6.80
2019-02-20T17:36:23.028Z,7.40
2019-02-20T17:38:53.039Z,7.27
2019-02-20T17:41:23.404Z,7.17
2019-02-20T17:43:52.990Z,7.40
2019-02-20T17:46:22.707Z,7.27
2019-02-20T17:48:52.492Z,6.80
2019-02-20T17:51:21.966Z,7.23
2019-02-20T17:53:51.542Z,6.13
2019-02-20T17:56:21.224Z,6.20
2019-02-20T17:58:50.872Z,6.33
2019-02-20T18:01:20.682Z,6.07
2019-02-20T18:03:49.997Z,5.60
2019-02-20T18:06:19.602Z,5.60
2019-02-20T18:08:49.457Z,6.30
2019-02-20T18:11:19.810Z,5.70
2019-02-20T18:13:49.574Z,5.50
2019-02-20T18:16:18.944Z,6.63
2019-02-20T18:18:48.129Z,6.00
2019-02-20T18:21:17.433Z,6.00
2019-02-20T18:23:46.633Z,6.37
2019-02-20T18:26:15.968Z,5.80
2019-02-20T18:28:45.259Z,5.40
2019-02-20T18:31:14.557Z,5.77
2019-02-20T18:33:45.030Z,5.13
2019-02-20T18:36:14.930Z,5.50
2019-02-20T18:38:45.142Z,5.30
2019-02-20T18:41:14.817Z,5.47
2019-02-20T18:43:44.402Z,6.30
2019-02-20T18:46:14.795Z,5.40
2019-02-20T18:48:44.086Z,6.33
2019-02-20T18:51:14.108Z,5.50
2019-02-20T18:53:45.026Z,5.70
2019-02-20T18:56:14.734Z,6.07
2019-02-20T18:58:43.907Z,6.10
2019-02-20T19:01:13.216Z,6.57
2019-02-20T19:03:42.392Z,6.23
2019-02-20T19:06:11.631Z,6.93
2019-02-20T19:08:56.984Z,5.93
2019-02-20T19:12:13.755Z,6.40
2019-02-20T19:15:30.059Z,5.70
2019-02-20T19:18:25.700Z,6.03
2019-02-20T19:21:00.299Z,7.13
2019-02-20T19:24:16.700Z,6.17
2019-02-20T19:27:13.733Z,6.00
2019-02-20T19:30:18.337Z,6.80
2019-02-20T19:33:12.558Z,6.53
2019-02-20T19:36:26.062Z,6.37
2019-02-20T19:39:38.413Z,6.47
2019-02-20T19:42:57.696Z,6.53
2019-02-20T19:46:01.157Z,6.40
2019-02-20T19:48:59.782Z,6.90
2019-02-20T19:52:21.208Z,7.40
2019-02-20T19:55:30.951Z,6.80
2019-02-20T19:58:40.018Z,7.47
2019-02-20T20:01:23.983Z,6.70
2019-02-20T20:04:04.872Z,6.37
2019-02-20T20:06:58.385Z,6.97
2019-02-20T20:10:26.860Z,7.30
2019-02-20T20:13:48.509Z,7.50
2019-02-20T20:17:00.594Z,6.60
2019-02-20T20:19:56.584Z,7.70
2019-02-20T20:23:01.800Z,6.93
2019-02-20T20:25:56.492Z,6.87
2019-02-20T20:28:49.461Z,7.00
2019-02-20T20:31:50.648Z,7.47
2019-02-20T20:34:44.692Z,7.20
2019-02-20T20:37:42.051Z,7.57
2019-02-20T20:40:40.512Z,7.47
2019-02-20T20:43:36.261Z,7.53
2019-02-20T20:46:40.349Z,7.83
2019-02-20T20:49:23.689Z,7.40
2019-02-20T20:52:39.924Z,8.30
2019-02-20T20:55:45.001Z,8.30
2019-02-20T20:58:34.950Z,8.50
2019-02-20T21:01:36.573Z,7.67
2019-02-20T21:04:45.675Z,8.77
2019-02-20T21:07:44.812Z,7.87
2019-02-20T21:11:03.875Z,8.40
2019-02-20T21:13:55.534Z,8.90
2019-02-20T21:16:59.875Z,8.57
2019-02-20T21:20:01.423Z,8.97
2019-02-20T21:23:07.621Z,9.63
2019-02-20T21:26:13.435Z,9.57
2019-02-20T21:29:10.184Z,9.27
2019-02-20T21:32:01.173Z,9.57
2019-02-20T21:35:00.586Z,9.70
2019-02-20T21:38:02.791Z,9.77
2019-02-20T21:40:56.680Z,10.03
2019-02-20T21:43:59.323Z,10.50
2019-02-20T21:47:21.269Z,9.50
2019-02-20T21:50:09.420Z,11.17
2019-02-20T21:53:25.951Z,10.77
2019-02-20T21:56:18.992Z,10.20
2019-02-20T21:59:39.797Z,11.60
2019-02-20T22:02:46.067Z,10.87
2019-02-20T22:05:43.480Z,11.17
2019-02-20T22:08:56.454Z,10.97
2019-02-20T22:12:02.627Z,11.77
2019-02-20T22:15:24.684Z,11.87
2019-02-20T22:18:37.475Z,11.77
2019-02-20T22:21:38.534Z,12.53
2019-02-20T22:24:39.759Z,13.23
2019-02-20T22:27:27.370Z,12.00
2019-02-20T22:30:27.176Z,13.20
2019-02-20T22:33:17.508Z,11.37
2019-02-20T22:35:59.188Z,12.57
2019-02-20T22:39:05.203Z,12.17
2019-02-20T22:42:13.906Z,12.33
2019-02-20T22:45:33.493Z,12.37
2019-02-20T22:48:17.557Z,12.70
2019-02-20T22:51:28.433Z,12.30
2019-02-20T22:54:48.388Z,12.43
2019-02-20T22:57:54.784Z,13.20
2019-02-20T23:00:59.844Z,14.33
2019-02-20T23:03:48.307Z,12.83
2019-02-20T23:06:42.694Z,13.50
2019-02-20T23:09:39.769Z,13.13
2019-02-20T23:12:51.757Z,14.30
2019-02-20T23:15:20.968Z,14.33
2019-02-20T23:17:50.189Z,14.47
2019-02-20T23:20:19.428Z,14.40
2019-02-20T23:22:48.635Z,13.57
2019-02-20T23:25:17.859Z,14.70
2019-02-20T23:27:47.101Z,13.90
2019-02-20T23:30:16.300Z,14.40
2019-02-20T23:32:45.496Z,13.83
2019-02-20T23:35:14.712Z,14.93
2019-02-20T23:37:43.920Z,13.70
2019-02-20T23:40:13.217Z,13.60
2019-02-20T23:42:42.431Z,14.07
2019-02-20T23:45:11.621Z,14.50
2019-02-20T23:47:40.835Z,14.43
2019-02-20T23:50:10.066Z,13.57
2019-02-20T23:52:39.272Z,14.07
2019-02-20T23:55:08.501Z,14.67
2019-02-20T23:57:37.735Z,14.70
